createdAt,value
2023-02-27T00:00:14.965Z,-3.09
2023-02-27T00:02:43.432Z,-3.03
2023-02-27T00:05:10.991Z,-3.16
2023-02-27T00:07:38.091Z,-3.09
2023-02-27T00:10:06.088Z,-2.89
2023-02-27T00:12:38.027Z,-3.15
2023-02-27T00:15:10.364Z,-3.35
2023-02-27T00:17:37.408Z,-3.09
2023-02-27T00:20:06.614Z,-2.91
2023-02-27T00:22:33.300Z,-2.84
2023-02-27T00:24:59.977Z,-3.07
2023-02-27T00:27:26.773Z,-3.17
2023-02-27T00:29:53.475Z,-3.24
2023-02-27T00:32:20.295Z,-3.10
2023-02-27T00:34:47.381Z,-3.31
2023-02-27T00:37:15.179Z,-3.30
2023-02-27T00:39:42.043Z,-3.21
2023-02-27T00:42:09.012Z,-3.36
2023-02-27T00:44:35.762Z,-3.03
2023-02-27T00:47:02.500Z,-3.31
2023-02-27T00:49:29.187Z,-3.12
2023-02-27T00:51:55.842Z,-3.31
2023-02-27T00:54:24.028Z,-3.14
2023-02-27T00:56:50.789Z,-3.39
2023-02-27T00:59:17.718Z,-3.52
2023-02-27T01:01:45.507Z,-3.19
2023-02-27T01:04:12.230Z,-3.04
2023-02-27T01:06:38.894Z,-3.25
2023-02-27T01:09:05.674Z,-3.34
2023-02-27T01:11:32.756Z,-2.90
2023-02-27T01:14:00.398Z,-3.06
2023-02-27T01:16:27.197Z,-3.15
2023-02-27T01:18:54.271Z,-3.35
2023-02-27T01:21:22.898Z,-3.40
2023-02-27T01:23:49.911Z,-3.39
2023-02-27T01:26:19.267Z,-3.10
2023-02-27T01:28:46.004Z,-3.07
2023-02-27T01:31:13.244Z,-3.19
2023-02-27T01:33:39.946Z,-3.45
2023-02-27T01:36:07.085Z,-3.24
2023-02-27T01:38:33.761Z,-2.91
2023-02-27T01:41:00.881Z,-2.89
2023-02-27T01:43:28.254Z,-3.32
2023-02-27T01:45:55.557Z,-3.27
2023-02-27T01:48:29.063Z,-3.09
2023-02-27T01:50:59.222Z,-3.25
2023-02-27T01:53:28.780Z,-2.97
2023-02-27T01:56:00.774Z,-3.00
2023-02-27T01:58:28.060Z,-3.14
2023-02-27T02:00:55.694Z,-3.22
2023-02-27T02:03:33.083Z,-3.43
2023-02-27T02:06:02.359Z,-3.17
2023-02-27T02:08:33.357Z,-3.47
2023-02-27T02:11:00.559Z,-3.26
2023-02-27T02:13:28.112Z,-3.25
2023-02-27T02:16:20.326Z,-3.40
2023-02-27T02:19:27.778Z,-3.35
2023-02-27T02:22:33.091Z,-3.10
2023-02-27T02:25:37.481Z,-3.48
2023-02-27T02:28:40.960Z,-3.57
2023-02-27T02:31:33.180Z,-3.73
2023-02-27T02:34:10.212Z,-3.77
2023-02-27T02:36:58.142Z,-3.82
2023-02-27T02:39:30.605Z,-3.77
2023-02-27T02:42:04.001Z,-3.74
2023-02-27T02:44:44.234Z,-3.49
2023-02-27T02:47:31.351Z,-3.17
2023-02-27T02:50:12.543Z,-3.43
2023-02-27T02:53:16.863Z,-3.21
2023-02-27T02:55:49.441Z,-2.75
2023-02-27T02:58:36.028Z,-3.31
2023-02-27T03:01:13.456Z,-3.14
2023-02-27T03:03:47.792Z,-2.53
2023-02-27T03:06:20.362Z,-3.29
2023-02-27T03:08:54.123Z,-3.41
2023-02-27T03:11:26.534Z,-3.03
2023-02-27T03:14:03.360Z,-3.52
2023-02-27T03:16:36.728Z,-3.40
2023-02-27T03:19:13.675Z,-3.60
2023-02-27T03:21:50.373Z,-3.39
2023-02-27T03:24:23.493Z,-3.41
2023-02-27T03:26:52.886Z,-3.16
2023-02-27T03:29:26.631Z,-3.37
2023-02-27T03:32:02.194Z,-3.38
2023-02-27T03:34:35.379Z,-3.38
2023-02-27T03:37:45.104Z,-2.98
2023-02-27T03:40:26.994Z,-2.74
2023-02-27T03:43:14.379Z,-3.42
2023-02-27T03:45:49.291Z,-3.50
2023-02-27T03:48:16.457Z,-2.69
2023-02-27T03:50:43.631Z,-3.29
2023-02-27T03:53:44.322Z,-3.48
2023-02-27T03:56:12.408Z,-3.02
2023-02-27T03:58:39.590Z,-3.29
2023-02-27T04:01:06.364Z,-2.90
2023-02-27T04:03:37.391Z,-3.27
2023-02-27T04:06:24.993Z,-3.42
2023-02-27T04:09:34.934Z,-3.28
2023-02-27T04:12:39.945Z,-3.32
2023-02-27T04:15:18.500Z,-3.19
2023-02-27T04:18:15.823Z,-3.39
2023-02-27T04:20:52.045Z,-3.48
2023-02-27T04:23:38.544Z,-3.41
2023-02-27T04:26:18.098Z,-3.24
2023-02-27T04:28:59.883Z,-3.07
2023-02-27T04:31:48.118Z,-3.46
2023-02-27T04:34:39.708Z,-3.44
2023-02-27T04:37:12.489Z,-3.18
2023-02-27T04:39:51.695Z,-3.50
2023-02-27T04:42:24.190Z,-3.25
2023-02-27T04:44:54.803Z,-3.72
2023-02-27T04:47:24.165Z,-3.47
2023-02-27T04:49:56.382Z,-3.09
2023-02-27T04:52:38.547Z,-3.50
2023-02-27T04:55:13.545Z,-3.39
2023-02-27T04:58:10.524Z,-3.38
2023-02-27T05:00:39.982Z,-2.77
2023-02-27T05:03:19.417Z,-3.48
2023-02-27T05:05:48.339Z,-3.12
2023-02-27T05:08:39.300Z,-3.35
2023-02-27T05:11:36.725Z,-3.19
2023-02-27T05:14:19.722Z,-3.42
2023-02-27T05:16:57.516Z,-3.46
2023-02-27T05:19:24.158Z,-3.16
2023-02-27T05:22:02.468Z,-3.25
2023-02-27T05:24:38.798Z,-3.15
2023-02-27T05:27:33.463Z,-3.65
2023-02-27T05:30:09.055Z,-3.62
2023-02-27T05:33:15.710Z,-3.38
2023-02-27T05:35:50.627Z,-3.31
2023-02-27T05:38:28.019Z,-2.87
2023-02-27T05:41:01.055Z,-3.52
2023-02-27T05:43:51.423Z,-3.23
2023-02-27T05:46:22.953Z,-3.42
2023-02-27T05:48:57.181Z,-3.32
2023-02-27T05:51:27.098Z,-3.11
2023-02-27T05:54:13.580Z,-3.05
2023-02-27T05:56:43.073Z,-3.09
2023-02-27T05:59:34.399Z,-3.39
2023-02-27T06:02:01.696Z,-3.25
2023-02-27T06:04:28.869Z,-3.09
2023-02-27T06:06:55.393Z,-3.43
2023-02-27T06:09:22.121Z,-3.53
2023-02-27T06:11:48.568Z,-3.23
2023-02-27T06:14:15.030Z,-3.14
2023-02-27T06:16:41.556Z,-2.92
2023-02-27T06:19:08.028Z,-3.35
2023-02-27T06:21:34.513Z,-3.35
2023-02-27T06:24:01.002Z,-3.56
2023-02-27T06:26:28.047Z,-3.00
2023-02-27T06:28:54.753Z,-2.80
2023-02-27T06:31:21.320Z,-3.01
2023-02-27T06:33:47.820Z,-3.13
2023-02-27T06:36:14.452Z,-2.98
2023-02-27T06:38:40.987Z,-3.32
2023-02-27T06:41:07.535Z,-3.46
2023-02-27T06:43:36.514Z,-3.34
2023-02-27T06:46:03.093Z,-3.21
2023-02-27T06:48:29.608Z,-3.41
2023-02-27T06:50:56.847Z,-3.29
2023-02-27T06:53:24.265Z,-3.12
2023-02-27T06:55:51.203Z,-3.41
2023-02-27T06:58:18.261Z,-2.28
2023-02-27T07:00:45.026Z,-3.21
2023-02-27T07:03:12.512Z,-3.25
2023-02-27T07:05:40.950Z,-3.19
2023-02-27T07:08:07.706Z,-2.92
2023-02-27T07:10:34.125Z,-2.51
2023-02-27T07:13:00.546Z,-2.25
2023-02-27T07:15:27.028Z,-1.97
2023-02-27T07:17:54.423Z,-2.53
2023-02-27T07:20:20.970Z,-2.24
2023-02-27T07:22:47.897Z,-1.73
2023-02-27T07:25:14.593Z,-2.30
2023-02-27T07:27:41.051Z,-2.16
2023-02-27T07:30:08.506Z,-2.01
2023-02-27T07:32:34.989Z,-1.90
2023-02-27T07:35:03.404Z,-2.09
2023-02-27T07:37:29.948Z,-2.41
2023-02-27T07:39:56.425Z,-2.24
2023-02-27T07:42:22.910Z,-2.11
2023-02-27T07:44:49.400Z,-2.19
2023-02-27T07:47:17.667Z,-2.18
2023-02-27T07:49:44.469Z,-2.05
2023-02-27T07:52:11.369Z,-2.10
2023-02-27T07:54:38.342Z,-1.44
2023-02-27T07:57:05.391Z,-1.68
2023-02-27T07:59:32.639Z,-1.61
2023-02-27T08:01:59.189Z,-1.79
2023-02-27T08:04:25.699Z,-1.57
2023-02-27T08:06:52.166Z,-0.79
2023-02-27T08:09:18.721Z,-1.42
2023-02-27T08:11:47.261Z,-1.10
2023-02-27T08:14:15.368Z,-1.38
2023-02-27T08:16:41.861Z,-0.94
2023-02-27T08:19:08.391Z,-1.14
2023-02-27T08:21:34.869Z,-1.11
2023-02-27T08:24:02.406Z,-0.82
2023-02-27T08:26:29.261Z,-0.20
2023-02-27T08:28:55.908Z,-0.98
2023-02-27T08:31:22.578Z,-0.88
2023-02-27T08:33:55.288Z,-0.96
2023-02-27T08:36:24.495Z,-0.92
2023-02-27T08:38:50.976Z,-0.79
2023-02-27T08:41:17.749Z,-1.06
2023-02-27T08:43:44.232Z,-0.66
2023-02-27T08:46:11.112Z,-0.26
2023-02-27T08:48:37.854Z,-0.47
2023-02-27T08:51:04.346Z,-0.60
2023-02-27T08:53:30.855Z,-0.32
2023-02-27T08:55:57.367Z,0.19
2023-02-27T08:58:23.855Z,-0.49
2023-02-27T09:00:50.385Z,-0.42
2023-02-27T09:03:16.831Z,-0.21
2023-02-27T09:05:43.417Z,0.12
2023-02-27T09:08:09.914Z,0.19
2023-02-27T09:10:36.556Z,0.40
2023-02-27T09:13:03.326Z,0.19
2023-02-27T09:15:31.752Z,-0.11
2023-02-27T09:18:02.932Z,0.32
2023-02-27T09:20:31.661Z,0.57
2023-02-27T09:22:59.948Z,0.35
2023-02-27T09:25:27.575Z,0.68
2023-02-27T09:27:54.765Z,0.81
2023-02-27T09:30:21.782Z,0.25
2023-02-27T09:32:48.739Z,0.98
2023-02-27T09:35:15.924Z,0.46
2023-02-27T09:37:43.887Z,0.90
2023-02-27T09:40:22.674Z,0.48
2023-02-27T09:42:50.501Z,1.06
2023-02-27T09:45:29.917Z,0.25
2023-02-27T09:47:58.840Z,0.75
2023-02-27T09:50:37.808Z,0.36
2023-02-27T09:53:09.529Z,0.23
2023-02-27T09:55:40.022Z,0.59
2023-02-27T09:58:30.962Z,0.76
2023-02-27T10:01:08.674Z,0.85
2023-02-27T10:04:00.244Z,0.59
2023-02-27T10:06:34.180Z,1.13
2023-02-27T10:09:22.853Z,1.52
2023-02-27T10:12:26.752Z,0.99
2023-02-27T10:15:03.336Z,0.58
2023-02-27T10:17:42.899Z,0.95
2023-02-27T10:20:34.514Z,0.75
2023-02-27T10:23:06.675Z,0.40
2023-02-27T10:25:39.746Z,0.48
2023-02-27T10:28:13.862Z,0.89
2023-02-27T10:30:41.801Z,0.72
2023-02-27T10:33:18.778Z,0.97
2023-02-27T10:35:45.539Z,0.80
2023-02-27T10:38:22.875Z,0.55
2023-02-27T10:40:49.896Z,0.67
2023-02-27T10:43:19.117Z,0.14
2023-02-27T10:45:45.720Z,0.47
2023-02-27T10:48:14.395Z,1.41
2023-02-27T10:50:43.551Z,1.10
2023-02-27T10:53:27.066Z,1.39
2023-02-27T10:56:10.652Z,1.53
2023-02-27T10:58:38.066Z,1.04
2023-02-27T11:01:07.008Z,1.95
2023-02-27T11:03:40.531Z,2.12
2023-02-27T11:06:10.264Z,1.57
2023-02-27T11:08:36.825Z,2.32
2023-02-27T11:11:09.708Z,1.65
2023-02-27T11:13:38.120Z,2.09
2023-02-27T11:16:16.617Z,2.55
2023-02-27T11:18:45.377Z,2.44
2023-02-27T11:21:24.666Z,2.06
2023-02-27T11:23:54.754Z,2.35
2023-02-27T11:26:36.839Z,2.55
2023-02-27T11:29:15.119Z,1.83
2023-02-27T11:32:00.474Z,1.58
2023-02-27T11:34:31.481Z,1.26
2023-02-27T11:37:28.318Z,1.59
2023-02-27T11:40:14.560Z,1.51
2023-02-27T11:42:47.448Z,1.15
2023-02-27T11:46:14.694Z,1.23
2023-02-27T11:48:39.751Z,0.92
2023-02-27T11:51:06.999Z,1.26
2023-02-27T11:53:58.384Z,1.81
2023-02-27T11:56:58.405Z,1.29
2023-02-27T11:59:32.680Z,1.16
2023-02-27T12:02:10.673Z,1.02
2023-02-27T12:04:51.001Z,0.52
2023-02-27T12:07:30.743Z,1.52
2023-02-27T12:10:05.824Z,1.20
2023-02-27T12:12:36.245Z,0.54
2023-02-27T12:15:15.068Z,0.91
2023-02-27T12:17:50.080Z,0.78
2023-02-27T12:20:46.492Z,0.75
2023-02-27T12:23:21.963Z,1.29
2023-02-27T12:25:59.239Z,0.77
2023-02-27T12:29:02.115Z,1.03
2023-02-27T12:31:34.479Z,0.80
2023-02-27T12:34:03.639Z,1.15
2023-02-27T12:36:30.857Z,1.04
2023-02-27T12:38:57.385Z,1.57
2023-02-27T12:41:36.591Z,0.98
2023-02-27T12:44:34.852Z,0.79
2023-02-27T12:47:18.789Z,0.33
2023-02-27T12:49:55.096Z,1.14
2023-02-27T12:53:00.931Z,1.76
2023-02-27T12:55:30.917Z,1.74
2023-02-27T12:58:29.547Z,1.21
2023-02-27T13:01:03.742Z,1.62
2023-02-27T13:03:50.196Z,1.32
2023-02-27T13:06:33.183Z,1.11
2023-02-27T13:09:08.903Z,2.24
2023-02-27T13:11:51.348Z,1.84
2023-02-27T13:14:36.572Z,3.18
2023-02-27T13:17:10.512Z,1.41
2023-02-27T13:19:47.490Z,1.74
2023-02-27T13:22:25.552Z,1.18
2023-02-27T13:24:56.291Z,0.91
2023-02-27T13:27:28.650Z,1.54
2023-02-27T13:30:08.403Z,1.54
2023-02-27T13:32:52.912Z,2.12
2023-02-27T13:35:39.033Z,1.39
2023-02-27T13:38:42.659Z,1.29
2023-02-27T13:41:21.023Z,1.33
2023-02-27T13:43:52.362Z,1.30
2023-02-27T13:46:33.166Z,1.45
2023-02-27T13:49:05.455Z,1.60
2023-02-27T13:51:34.818Z,1.16
2023-02-27T13:54:13.313Z,1.61
2023-02-27T13:56:54.823Z,1.53
2023-02-27T13:59:36.501Z,1.96
2023-02-27T14:02:11.058Z,1.03
2023-02-27T14:04:50.302Z,1.13
2023-02-27T14:07:21.445Z,0.79
2023-02-27T14:09:51.750Z,1.04
2023-02-27T14:12:43.982Z,1.60
2023-02-27T14:15:17.450Z,1.14
2023-02-27T14:17:46.926Z,1.34
2023-02-27T14:20:33.312Z,1.62
2023-02-27T14:23:14.761Z,1.17
2023-02-27T14:26:13.514Z,1.12
2023-02-27T14:28:51.787Z,1.22
2023-02-27T14:31:30.777Z,1.00
2023-02-27T14:34:05.051Z,0.77
2023-02-27T14:36:45.716Z,0.27
2023-02-27T14:39:26.177Z,0.48
2023-02-27T14:42:21.998Z,0.72
2023-02-27T14:44:50.360Z,0.08
2023-02-27T14:47:29.455Z,0.64
2023-02-27T14:49:56.330Z,0.75
2023-02-27T14:52:31.752Z,0.74
2023-02-27T14:55:17.594Z,0.66
2023-02-27T14:58:16.425Z,1.27
2023-02-27T15:00:57.933Z,1.19
2023-02-27T15:03:29.135Z,1.20
2023-02-27T15:06:01.403Z,0.89
2023-02-27T15:08:36.352Z,0.47
2023-02-27T15:11:02.948Z,1.07
2023-02-27T15:13:32.562Z,0.72
2023-02-27T15:16:23.848Z,0.61
2023-02-27T15:18:57.173Z,1.22
2023-02-27T15:21:26.022Z,0.66
2023-02-27T15:24:01.534Z,0.38
2023-02-27T15:26:30.892Z,0.33
2023-02-27T15:28:59.826Z,0.72
2023-02-27T15:31:31.070Z,0.23
2023-02-27T15:33:59.769Z,0.70
2023-02-27T15:36:30.123Z,0.33
2023-02-27T15:39:06.821Z,0.14
2023-02-27T15:41:33.941Z,0.39
2023-02-27T15:44:02.637Z,0.41
2023-02-27T15:46:29.801Z,-0.44
2023-02-27T15:48:56.751Z,0.08
2023-02-27T15:51:26.678Z,-0.59
2023-02-27T15:53:57.881Z,0.12
2023-02-27T15:56:34.749Z,-0.16
2023-02-27T15:59:02.833Z,-0.06
2023-02-27T16:01:40.911Z,-0.54
2023-02-27T16:04:20.927Z,-0.23
2023-02-27T16:06:51.461Z,-0.44
2023-02-27T16:09:33.077Z,-0.69
2023-02-27T16:12:23.970Z,-0.14
2023-02-27T16:14:53.462Z,-0.46
2023-02-27T16:17:23.772Z,-0.25
2023-02-27T16:19:50.319Z,-0.89
2023-02-27T16:22:19.271Z,-0.39
2023-02-27T16:24:46.005Z,-0.65
2023-02-27T16:27:24.732Z,-0.19
2023-02-27T16:29:53.668Z,-0.68
2023-02-27T16:32:30.329Z,-0.28
2023-02-27T16:35:03.741Z,-0.93
2023-02-27T16:37:39.147Z,-0.73
2023-02-27T16:40:26.962Z,-0.57
2023-02-27T16:42:53.840Z,-0.84
2023-02-27T16:45:25.672Z,-1.15
2023-02-27T16:47:54.927Z,-0.75
2023-02-27T16:50:31.607Z,-0.93
2023-02-27T16:52:58.123Z,-0.94
2023-02-27T16:55:25.810Z,-0.32
2023-02-27T16:57:52.887Z,-1.00
2023-02-27T17:00:20.311Z,-1.14
2023-02-27T17:02:48.198Z,-0.55
2023-02-27T17:05:17.613Z,-0.66
2023-02-27T17:07:44.754Z,-0.53
2023-02-27T17:10:16.090Z,-0.77
2023-02-27T17:12:43.990Z,-0.44
2023-02-27T17:15:10.883Z,-0.66
2023-02-27T17:17:37.521Z,-1.00
2023-02-27T17:20:07.265Z,-0.77
2023-02-27T17:22:39.503Z,-0.61
2023-02-27T17:25:07.194Z,-0.47
2023-02-27T17:27:33.868Z,-1.03
2023-02-27T17:30:00.455Z,-0.48
2023-02-27T17:32:26.997Z,-0.88
2023-02-27T17:34:54.869Z,-0.98
2023-02-27T17:37:22.005Z,-1.10
2023-02-27T17:39:48.976Z,-1.26
2023-02-27T17:42:18.427Z,-0.85
2023-02-27T17:44:46.157Z,-1.27
2023-02-27T17:47:12.806Z,-0.60
2023-02-27T17:49:39.389Z,-0.78
2023-02-27T17:52:07.164Z,-0.13
2023-02-27T17:54:35.200Z,-0.94
2023-02-27T17:57:02.365Z,-0.88
2023-02-27T17:59:28.911Z,-0.74
2023-02-27T18:01:55.814Z,-1.27
2023-02-27T18:04:22.531Z,-1.00
2023-02-27T18:06:50.585Z,-0.92
2023-02-27T18:09:17.885Z,-1.01
2023-02-27T18:11:44.387Z,-1.02
2023-02-27T18:14:10.999Z,-1.33
2023-02-27T18:16:37.948Z,-0.97
2023-02-27T18:19:06.056Z,-0.78
2023-02-27T18:21:33.517Z,-0.98
2023-02-27T18:24:00.549Z,-0.92
2023-02-27T18:26:32.165Z,-1.23
2023-02-27T18:29:06.022Z,-0.68
2023-02-27T18:31:35.687Z,-1.05
2023-02-27T18:34:02.525Z,-0.80
2023-02-27T18:36:30.358Z,-0.70
2023-02-27T18:38:58.760Z,-0.64
2023-02-27T18:41:25.273Z,-1.12
2023-02-27T18:43:52.002Z,-1.17
2023-02-27T18:46:19.449Z,-0.80
2023-02-27T18:48:46.263Z,-1.27
2023-02-27T18:51:15.460Z,-1.15
2023-02-27T18:53:45.830Z,-1.14
2023-02-27T18:56:14.010Z,-0.79
2023-02-27T18:58:40.741Z,-1.04
2023-02-27T19:01:08.074Z,-0.99
2023-02-27T19:03:36.253Z,-0.97
2023-02-27T19:06:03.432Z,-1.18
2023-02-27T19:08:30.338Z,-1.45
2023-02-27T19:10:57.179Z,-0.93
2023-02-27T19:13:25.271Z,-0.91
2023-02-27T19:15:52.537Z,-0.46
2023-02-27T19:18:19.271Z,-1.06
2023-02-27T19:20:46.207Z,-0.41
2023-02-27T19:23:12.644Z,-1.09
2023-02-27T19:25:39.037Z,-1.04
2023-02-27T19:28:06.398Z,-0.68
2023-02-27T19:30:32.899Z,-1.46
2023-02-27T19:32:59.442Z,-0.50
2023-02-27T19:35:25.982Z,-1.28
2023-02-27T19:37:56.944Z,-1.14
2023-02-27T19:40:24.584Z,-0.85
2023-02-27T19:42:51.463Z,-1.50
2023-02-27T19:45:18.054Z,-1.83
2023-02-27T19:47:44.812Z,-1.73
2023-02-27T19:50:11.787Z,-1.54
2023-02-27T19:52:38.255Z,-1.54
2023-02-27T19:55:05.297Z,-1.72
2023-02-27T19:57:34.816Z,-1.62
2023-02-27T20:00:02.101Z,-1.83
2023-02-27T20:02:40.384Z,-1.58
2023-02-27T20:05:07.638Z,-1.65
2023-02-27T20:07:34.328Z,-1.70
2023-02-27T20:10:00.842Z,-2.07
2023-02-27T20:12:28.540Z,-1.57
2023-02-27T20:14:55.007Z,-2.13
2023-02-27T20:17:21.488Z,-1.60
2023-02-27T20:19:47.937Z,-1.53
2023-02-27T20:22:15.836Z,-1.86
2023-02-27T20:24:44.649Z,-1.99
2023-02-27T20:27:11.591Z,-2.07
2023-02-27T20:29:38.122Z,-1.71
2023-02-27T20:32:04.898Z,-1.80
2023-02-27T20:34:31.414Z,-1.48
2023-02-27T20:36:58.025Z,-1.67
2023-02-27T20:39:25.128Z,-2.16
2023-02-27T20:41:51.812Z,-2.22
2023-02-27T20:44:18.365Z,-2.03
2023-02-27T20:46:44.965Z,-1.92
2023-02-27T20:49:15.513Z,-2.16
2023-02-27T20:51:42.756Z,-2.32
2023-02-27T20:54:14.194Z,-1.90
2023-02-27T20:56:41.562Z,-1.82
2023-02-27T20:59:11.730Z,-1.89
2023-02-27T21:01:38.713Z,-1.77
2023-02-27T21:04:06.056Z,-2.23
2023-02-27T21:06:32.866Z,-2.21
2023-02-27T21:09:03.150Z,-1.78
2023-02-27T21:11:31.391Z,-2.18
2023-02-27T21:14:02.135Z,-1.87
2023-02-27T21:16:28.644Z,-2.14
2023-02-27T21:18:56.604Z,-2.27
2023-02-27T21:21:28.560Z,-2.21
2023-02-27T21:23:55.870Z,-3.22
2023-02-27T21:26:26.340Z,-2.41
2023-02-27T21:28:55.259Z,-2.40
2023-02-27T21:31:23.690Z,-2.15
2023-02-27T21:33:51.012Z,-2.39
2023-02-27T21:36:17.896Z,-2.71
2023-02-27T21:38:45.879Z,-2.41
2023-02-27T21:41:12.901Z,-2.64
2023-02-27T21:43:40.481Z,-2.47
2023-02-27T21:46:09.129Z,-2.51
2023-02-27T21:48:35.638Z,-2.30
2023-02-27T21:51:02.674Z,-2.46
2023-02-27T21:53:29.633Z,-2.36
2023-02-27T21:56:02.599Z,-2.54
2023-02-27T21:58:29.176Z,-2.57
2023-02-27T22:00:55.651Z,-2.45
2023-02-27T22:03:22.164Z,-2.18
2023-02-27T22:05:48.710Z,-2.41
2023-02-27T22:08:15.141Z,-2.54
2023-02-27T22:10:47.493Z,-2.36
2023-02-27T22:13:15.034Z,-2.31
2023-02-27T22:15:42.360Z,-2.38
2023-02-27T22:18:09.240Z,-2.36
2023-02-27T22:20:38.749Z,-2.09
2023-02-27T22:23:06.452Z,-2.34
2023-02-27T22:25:33.056Z,-2.06
2023-02-27T22:27:59.838Z,-2.60
2023-02-27T22:30:27.185Z,-2.65
2023-02-27T22:32:54.630Z,-3.54
2023-02-27T22:35:22.418Z,-1.71
2023-02-27T22:37:49.242Z,-2.07
2023-02-27T22:40:17.857Z,-2.54
2023-02-27T22:42:44.997Z,-2.41
2023-02-27T22:45:11.713Z,-2.15
2023-02-27T22:47:38.516Z,-2.27
2023-02-27T22:50:05.849Z,-2.50
2023-02-27T22:52:35.398Z,-2.53
2023-02-27T22:55:02.035Z,-2.16
2023-02-27T22:57:28.462Z,-2.38
2023-02-27T22:59:55.396Z,-2.50
2023-02-27T23:18:26.766Z,-3.03
2023-02-27T23:20:53.869Z,-2.58
2023-02-27T23:23:20.444Z,-2.75
2023-02-27T23:25:47.025Z,-2.78
2023-02-27T23:28:13.616Z,-2.41
2023-02-27T23:30:40.181Z,-2.33
2023-02-27T23:33:06.714Z,-2.71
2023-02-27T23:35:33.362Z,-2.72
2023-02-27T23:38:00.737Z,-2.61
2023-02-27T23:40:28.663Z,-2.80
2023-02-27T23:42:55.243Z,-1.63
2023-02-27T23:45:24.427Z,-2.36
2023-02-27T23:47:52.089Z,-2.86
2023-02-27T23:50:21.434Z,-2.53
2023-02-27T23:52:49.567Z,-2.64
2023-02-27T23:55:17.775Z,-2.80
2023-02-27T23:57:44.659Z,-2.53
